Fort Smith, Fort Smith Airport (CYSM)

NameFort Smith Airport
CityFort Smith
CountryCanada
ICAOCYSM
IATAYSM
Altitude205 m
CoordinatesGoogle Map
Live Air TrafficLiveATC.net
METARCYSM 201200Z 16014G20KT 15SM BKN080 OVC120 01/M08 A2971 RMK AC6AC2 PRESFR SLP077
2018-10-20 12:00:00 Wind: South-Southeast (160°) 7.2 m/s - Visibility: 24140.1 m - Temperature: 1 °C - Dew point: -8 °C - Humidity: 51.4% - Pressure: 1006.1 hPa

Sorry, no flights used the airport in this database.